createdAt,value
2023-01-04T00:00:42.013Z,484.02
2023-01-04T00:02:45.543Z,494.08
2023-01-04T00:04:48.993Z,493.48
2023-01-04T00:06:52.300Z,501.65
2023-01-04T00:08:55.956Z,496.17
2023-01-04T00:11:02.303Z,499.52
2023-01-04T00:13:05.669Z,492.05
2023-01-04T00:15:10.124Z,487.58
2023-01-04T00:17:14.745Z,494.75
2023-01-04T00:19:18.172Z,492.33
2023-01-04T00:21:24.465Z,494.13
2023-01-04T00:23:29.284Z,500.00
2023-01-04T00:25:32.581Z,504.65
2023-01-04T00:27:35.876Z,497.00
2023-01-04T00:29:39.203Z,493.88
2023-01-04T00:31:44.529Z,510.77
2023-01-04T00:33:49.392Z,499.00
2023-01-04T00:35:52.815Z,502.40
2023-01-04T00:37:56.283Z,504.02
2023-01-04T00:39:59.581Z,509.63
2023-01-04T00:42:06.150Z,499.70
2023-01-04T00:44:10.097Z,496.85
2023-01-04T00:46:13.525Z,505.73
2023-01-04T00:48:17.001Z,501.40
2023-01-04T00:50:21.636Z,502.10
2023-01-04T00:52:24.934Z,501.42
2023-01-04T00:54:29.039Z,506.50
2023-01-04T00:56:33.052Z,503.65
2023-01-04T00:58:36.319Z,506.10
2023-01-04T01:00:40.093Z,501.17
2023-01-04T01:02:43.560Z,499.75
2023-01-04T01:04:46.934Z,504.73
2023-01-04T01:06:52.588Z,507.65
2023-01-04T01:08:56.020Z,512.05
2023-01-04T01:11:04.922Z,501.27
2023-01-04T01:13:08.339Z,503.13
2023-01-04T01:15:12.426Z,501.10
2023-01-04T01:17:15.810Z,502.00
2023-01-04T01:19:31.538Z,499.02
2023-01-04T01:21:34.891Z,502.17
2023-01-04T01:23:39.823Z,508.67
2023-01-04T01:25:43.650Z,519.63
2023-01-04T01:27:47.016Z,506.33
2023-01-04T01:29:50.305Z,508.08
2023-01-04T01:31:54.307Z,504.10
2023-01-04T01:33:58.396Z,505.30
2023-01-04T01:36:02.172Z,495.02
2023-01-04T01:38:05.799Z,506.88
2023-01-04T01:40:12.382Z,485.75
2023-01-04T01:42:23.282Z,493.55
2023-01-04T01:45:02.653Z,502.23
2023-01-04T01:47:06.364Z,490.63
2023-01-04T01:49:14.345Z,494.63
2023-01-04T01:51:18.152Z,487.30
2023-01-04T01:53:22.152Z,499.35
2023-01-04T01:55:29.140Z,495.75
2023-01-04T01:57:36.908Z,489.73
2023-01-04T01:59:42.856Z,499.00
2023-01-04T02:01:46.478Z,502.20
2023-01-04T02:03:50.600Z,490.25
2023-01-04T02:05:56.148Z,487.90
2023-01-04T02:08:01.154Z,501.50
2023-01-04T02:10:05.452Z,495.83
2023-01-04T02:12:13.520Z,490.75
2023-01-04T02:14:30.552Z,488.05
2023-01-04T02:16:51.567Z,492.58
2023-01-04T02:19:03.031Z,494.17
2023-01-04T02:21:13.496Z,487.40
2023-01-04T02:23:55.063Z,486.13
2023-01-04T02:26:25.231Z,489.48
2023-01-04T02:28:50.388Z,488.30
2023-01-04T02:31:22.599Z,490.77
2023-01-04T02:33:40.015Z,494.08
2023-01-04T02:35:52.661Z,500.75
2023-01-04T02:38:04.423Z,487.33
2023-01-04T02:40:17.149Z,503.02
2023-01-04T02:42:50.042Z,487.38
2023-01-04T02:44:58.394Z,493.90
2023-01-04T02:47:07.037Z,501.67
2023-01-04T02:49:28.297Z,497.15
2023-01-04T02:51:33.388Z,486.73
2023-01-04T02:53:40.041Z,494.70
2023-01-04T02:55:50.243Z,507.52
2023-01-04T02:58:02.873Z,492.67
2023-01-04T03:00:25.391Z,491.52
2023-01-04T03:03:09.088Z,496.10
2023-01-04T03:05:52.249Z,489.02
2023-01-04T03:08:03.929Z,501.08
2023-01-04T03:10:13.739Z,494.83
2023-01-04T03:12:33.318Z,495.67
2023-01-04T03:14:42.337Z,484.67
2023-01-04T03:16:46.891Z,494.80
2023-01-04T03:18:55.754Z,497.83
2023-01-04T03:21:01.328Z,494.00
2023-01-04T03:23:26.252Z,496.98
2023-01-04T03:25:51.791Z,503.25
2023-01-04T03:28:14.120Z,505.92
2023-01-04T03:30:38.487Z,495.90
2023-01-04T03:33:06.050Z,495.38
2023-01-04T03:35:28.093Z,497.27
2023-01-04T03:37:36.597Z,490.05
2023-01-04T03:40:12.435Z,500.25
2023-01-04T03:42:40.484Z,502.65
2023-01-04T03:45:10.399Z,492.25
2023-01-04T03:47:37.363Z,509.77
2023-01-04T03:49:46.178Z,493.25
2023-01-04T03:51:55.171Z,499.67
2023-01-04T03:54:04.838Z,509.10
2023-01-04T03:56:11.698Z,495.58
2023-01-04T03:58:15.857Z,506.52
2023-01-04T04:00:20.882Z,499.40
2023-01-04T04:02:31.302Z,502.50
2023-01-04T04:04:52.600Z,500.63
2023-01-04T04:07:14.888Z,504.00
2023-01-04T04:09:18.227Z,500.27
2023-01-04T04:11:33.641Z,504.40
2023-01-04T04:13:36.966Z,504.60
2023-01-04T04:15:40.905Z,515.20
2023-01-04T04:17:45.215Z,507.30
2023-01-04T04:19:48.587Z,503.95
2023-01-04T04:21:51.952Z,508.27
2023-01-04T04:23:57.206Z,507.95
2023-01-04T04:26:00.564Z,500.52
2023-01-04T04:28:03.935Z,504.17
2023-01-04T04:30:08.429Z,506.45
2023-01-04T04:32:11.843Z,498.02
2023-01-04T04:34:15.431Z,504.55
2023-01-04T04:36:19.918Z,504.50
2023-01-04T04:38:23.441Z,502.63
2023-01-04T04:40:45.624Z,502.48
2023-01-04T04:42:48.945Z,507.33
2023-01-04T04:44:52.225Z,495.67
2023-01-04T04:46:55.572Z,505.63
2023-01-04T04:48:59.333Z,509.88
2023-01-04T04:51:02.810Z,505.63
2023-01-04T04:53:06.177Z,500.17
2023-01-04T04:55:10.072Z,501.88
2023-01-04T04:57:14.724Z,507.73
2023-01-04T04:59:18.886Z,510.45
2023-01-04T05:01:22.312Z,505.25
2023-01-04T05:03:26.065Z,502.80
2023-01-04T05:05:30.135Z,521.67
2023-01-04T05:07:33.539Z,503.70
2023-01-04T05:09:36.984Z,506.33
2023-01-04T05:11:57.878Z,499.85
2023-01-04T05:14:02.535Z,507.65
2023-01-04T05:16:08.577Z,506.85
2023-01-04T05:18:14.180Z,501.70
2023-01-04T05:20:17.652Z,501.42
2023-01-04T05:22:21.009Z,501.75
2023-01-04T05:24:24.279Z,514.60
2023-01-04T05:26:27.641Z,497.30
2023-01-04T05:28:31.075Z,500.65
2023-01-04T05:30:50.502Z,498.58
2023-01-04T05:32:53.830Z,497.73
2023-01-04T05:34:57.373Z,508.05
2023-01-04T05:37:00.724Z,507.80
2023-01-04T05:39:04.087Z,497.67
2023-01-04T05:41:28.211Z,497.15
2023-01-04T05:43:31.614Z,499.98
2023-01-04T05:45:36.880Z,507.95
2023-01-04T05:47:41.041Z,502.27
2023-01-04T05:49:44.835Z,509.00
2023-01-04T05:51:48.267Z,504.48
2023-01-04T05:53:51.564Z,498.02
2023-01-04T05:55:54.870Z,501.10
2023-01-04T05:57:58.338Z,509.60
2023-01-04T06:00:01.716Z,503.23
2023-01-04T06:02:07.625Z,504.92
2023-01-04T06:04:11.185Z,499.30
2023-01-04T06:06:14.572Z,504.10
2023-01-04T06:08:17.953Z,508.60
2023-01-04T06:10:21.983Z,501.42
2023-01-04T06:12:25.764Z,507.80
2023-01-04T06:14:29.182Z,499.90
2023-01-04T06:16:32.612Z,505.40
2023-01-04T06:18:37.366Z,496.63
2023-01-04T06:20:40.834Z,501.58
2023-01-04T06:22:44.555Z,501.00
2023-01-04T06:24:48.049Z,503.48
2023-01-04T06:26:51.756Z,502.27
2023-01-04T06:28:55.271Z,503.75
2023-01-04T06:30:58.858Z,509.95
2023-01-04T06:33:02.212Z,508.83
2023-01-04T06:35:07.426Z,506.70
2023-01-04T06:37:10.841Z,507.95
2023-01-04T06:39:14.138Z,501.90
2023-01-04T06:41:18.114Z,508.48
2023-01-04T06:43:21.536Z,508.13
2023-01-04T06:45:25.191Z,506.13
2023-01-04T06:47:28.580Z,510.70
2023-01-04T06:49:32.017Z,502.33
2023-01-04T06:51:36.687Z,506.33
2023-01-04T06:53:40.462Z,523.45
2023-01-04T06:55:44.706Z,523.53
2023-01-04T06:57:48.249Z,508.73
2023-01-04T06:59:51.694Z,507.15
2023-01-04T07:01:55.107Z,511.77
2023-01-04T07:03:58.513Z,508.20
2023-01-04T07:06:06.019Z,513.75
2023-01-04T07:08:11.290Z,505.88
2023-01-04T07:10:14.636Z,516.20
2023-01-04T07:12:18.216Z,508.17
2023-01-04T07:14:21.586Z,519.10
2023-01-04T07:16:24.992Z,507.48
2023-01-04T07:18:28.446Z,513.08
2023-01-04T07:20:31.841Z,516.03
2023-01-04T07:22:35.164Z,522.33
2023-01-04T07:24:39.948Z,509.92
2023-01-04T07:26:43.276Z,509.30
2023-01-04T07:29:04.363Z,516.28
2023-01-04T07:31:08.999Z,512.95
2023-01-04T07:33:12.369Z,525.10
2023-01-04T07:35:15.888Z,512.65
2023-01-04T07:37:19.307Z,515.38
2023-01-04T07:39:23.554Z,512.88
2023-01-04T07:41:28.247Z,511.15
2023-01-04T07:43:31.786Z,516.78
2023-01-04T07:45:36.932Z,521.22
2023-01-04T07:47:40.507Z,523.65
2023-01-04T07:49:43.847Z,514.30
2023-01-04T07:51:48.313Z,519.95
2023-01-04T07:53:51.819Z,527.25
2023-01-04T07:55:59.003Z,515.55
2023-01-04T07:58:03.818Z,510.70
2023-01-04T08:00:08.460Z,513.33
2023-01-04T08:02:15.348Z,511.65
2023-01-04T08:04:22.982Z,517.05
2023-01-04T08:06:26.549Z,516.33
2023-01-04T08:08:29.929Z,526.47
2023-01-04T08:10:33.254Z,521.30
2023-01-04T08:12:36.597Z,514.42
2023-01-04T08:14:41.294Z,520.42
2023-01-04T08:16:44.865Z,525.40
2023-01-04T08:18:48.287Z,520.42
2023-01-04T08:20:56.617Z,511.98
2023-01-04T08:23:01.884Z,525.80
2023-01-04T08:25:06.983Z,511.38
2023-01-04T08:27:11.140Z,522.33
2023-01-04T08:29:15.790Z,512.00
2023-01-04T08:31:24.263Z,518.00
2023-01-04T08:33:27.616Z,521.10
2023-01-04T08:35:30.951Z,526.72
2023-01-04T08:37:35.390Z,517.20
2023-01-04T08:39:44.081Z,514.80
2023-01-04T08:42:00.535Z,514.83
2023-01-04T08:44:06.689Z,517.38
2023-01-04T08:46:10.640Z,520.83
2023-01-04T08:48:20.785Z,519.03
2023-01-04T08:50:27.903Z,518.70
2023-01-04T08:52:31.357Z,521.22
2023-01-04T08:54:34.629Z,521.17
2023-01-04T08:56:38.317Z,517.95
2023-01-04T08:58:41.707Z,526.58
2023-01-04T09:00:45.091Z,518.22
2023-01-04T09:02:48.627Z,523.70
2023-01-04T09:04:55.278Z,520.95
2023-01-04T09:06:59.099Z,532.72
2023-01-04T09:09:02.629Z,525.03
2023-01-04T09:11:07.003Z,513.30
2023-01-04T09:13:10.331Z,524.17
2023-01-04T09:15:13.662Z,522.30
2023-01-04T09:17:17.173Z,527.20
2023-01-04T09:19:22.336Z,520.28
2023-01-04T09:21:27.405Z,528.67
2023-01-04T09:23:31.859Z,522.90
2023-01-04T09:25:35.127Z,543.90
2023-01-04T09:27:39.807Z,521.78
2023-01-04T09:29:43.524Z,528.10
2023-01-04T09:31:47.377Z,517.50
2023-01-04T09:36:16.052Z,517.97
2023-01-04T09:38:20.755Z,518.22
2023-01-04T09:40:32.306Z,526.25
2023-01-04T09:42:40.342Z,516.90
2023-01-04T09:45:21.865Z,532.53
2023-01-04T09:47:14.029Z,524.42
2023-01-04T09:49:21.212Z,519.50
2023-01-04T09:51:33.263Z,530.47
2023-01-04T09:53:44.469Z,526.35
2023-01-04T09:55:50.936Z,521.72
2023-01-04T09:58:00.123Z,523.80
2023-01-04T10:00:09.051Z,524.20
2023-01-04T10:02:25.295Z,522.88
2023-01-04T10:04:41.122Z,531.88
2023-01-04T10:06:47.085Z,527.78
2023-01-04T10:08:52.186Z,523.05
2023-01-04T10:11:08.481Z,519.28
2023-01-04T10:13:24.883Z,524.83
2023-01-04T10:15:34.165Z,521.03
2023-01-04T10:21:23.633Z,528.58
2023-01-04T10:23:36.489Z,525.25
2023-01-04T10:25:51.115Z,553.47
2023-01-04T10:28:15.808Z,529.95
2023-01-04T10:30:29.840Z,534.28
2023-01-04T10:32:38.580Z,510.33
2023-01-04T10:34:44.429Z,532.85
2023-01-04T10:36:49.562Z,531.40
2023-01-04T10:38:59.135Z,538.90
2023-01-04T10:41:10.690Z,527.85
2023-01-04T10:43:21.739Z,531.03
2023-01-04T10:45:33.847Z,541.38
2023-01-04T10:47:47.836Z,531.08
2023-01-04T10:49:56.646Z,530.88
2023-01-04T10:52:04.529Z,536.30
2023-01-04T10:54:14.793Z,533.95
2023-01-04T10:56:27.799Z,539.80
2023-01-04T10:58:37.433Z,534.30
2023-01-04T11:00:45.815Z,533.53
2023-01-04T11:02:56.799Z,535.72
2023-01-04T11:05:06.229Z,529.20
2023-01-04T11:07:15.281Z,528.10
2023-01-04T11:09:25.405Z,535.53
2023-01-04T11:11:35.189Z,538.85
2023-01-04T11:13:38.819Z,539.17
2023-01-04T11:15:43.633Z,536.13
2023-01-04T11:17:48.559Z,535.30
2023-01-04T11:19:52.066Z,531.70
2023-01-04T11:22:00.736Z,533.25
2023-01-04T11:24:30.820Z,537.47
2023-01-04T11:26:39.596Z,535.60
2023-01-04T11:28:50.250Z,532.05
2023-01-04T11:31:01.481Z,532.97
2023-01-04T11:33:12.133Z,532.70
2023-01-04T11:35:15.510Z,528.08
2023-01-04T11:37:30.935Z,533.88
2023-01-04T11:39:34.252Z,534.20
2023-01-04T11:41:39.028Z,530.88
2023-01-04T11:43:58.409Z,527.28
2023-01-04T11:46:05.163Z,526.22
2023-01-04T11:48:15.940Z,525.67
2023-01-04T11:50:37.576Z,529.08
2023-01-04T11:52:45.672Z,538.33
2023-01-04T11:54:49.044Z,527.00
2023-01-04T11:57:06.163Z,527.58
2023-01-04T11:59:24.470Z,528.33
2023-01-04T12:01:29.259Z,532.20
2023-01-04T12:03:35.914Z,531.65
2023-01-04T12:05:39.410Z,533.92
2023-01-04T12:07:43.110Z,527.95
2023-01-04T12:09:47.783Z,537.88
2023-01-04T12:11:54.121Z,532.85
2023-01-04T12:14:00.622Z,530.50
2023-01-04T12:16:13.579Z,538.38
2023-01-04T12:18:23.758Z,538.00
2023-01-04T12:20:29.826Z,529.40
2023-01-04T12:22:36.272Z,530.95
2023-01-04T12:24:40.412Z,534.63
2023-01-04T12:26:43.960Z,539.17
2023-01-04T12:28:49.265Z,543.35
2023-01-04T12:30:53.929Z,526.58
2023-01-04T12:32:57.226Z,544.42
2023-01-04T12:35:00.845Z,536.67
2023-01-04T12:37:06.209Z,537.38
2023-01-04T12:39:39.111Z,543.35
2023-01-04T12:42:10.251Z,538.95
2023-01-04T12:44:47.613Z,534.92
2023-01-04T12:47:11.522Z,529.25
2023-01-04T12:49:51.177Z,529.97
2023-01-04T12:52:38.149Z,525.60
2023-01-04T12:54:55.258Z,524.38
2023-01-04T12:57:22.410Z,531.13
2023-01-04T12:59:34.281Z,540.95
2023-01-04T13:01:38.873Z,540.58
2023-01-04T13:03:49.155Z,537.28
2023-01-04T13:05:59.503Z,537.15
2023-01-04T13:08:10.541Z,538.67
2023-01-04T13:10:27.858Z,535.40
2023-01-04T13:12:53.656Z,528.72
2023-01-04T13:15:04.928Z,524.05
2023-01-04T13:17:17.695Z,531.83
2023-01-04T13:19:25.516Z,529.63
2023-01-04T13:21:33.063Z,534.40
2023-01-04T13:23:37.053Z,532.55
2023-01-04T13:25:40.388Z,532.38
2023-01-04T13:27:56.849Z,529.53
2023-01-04T13:30:00.196Z,525.28
2023-01-04T13:32:05.631Z,525.38
2023-01-04T13:34:17.995Z,528.00
2023-01-04T13:36:22.759Z,524.40
2023-01-04T13:38:26.314Z,522.25
2023-01-04T13:40:32.814Z,529.00
2023-01-04T13:42:40.442Z,527.35
2023-01-04T13:45:19.093Z,531.65
2023-01-04T13:47:23.804Z,539.70
2023-01-04T13:49:28.259Z,521.85
2023-01-04T13:51:37.876Z,537.10
2023-01-04T13:53:42.086Z,529.05
2023-01-04T13:55:51.159Z,532.10
2023-01-04T13:57:55.995Z,534.40
2023-01-04T13:59:59.371Z,534.15
2023-01-04T14:02:02.833Z,531.60
2023-01-04T14:04:08.592Z,528.42
2023-01-04T14:06:20.117Z,525.72
2023-01-04T14:08:31.562Z,531.00
2023-01-04T14:10:34.951Z,533.15
2023-01-04T14:12:38.356Z,541.58
2023-01-04T14:14:49.591Z,527.95
2023-01-04T14:17:05.597Z,529.00
2023-01-04T14:19:40.511Z,525.25
2023-01-04T14:21:43.823Z,539.22
2023-01-04T14:23:48.473Z,524.53
2023-01-04T14:25:56.530Z,527.05
2023-01-04T14:28:41.539Z,536.38
2023-01-04T14:30:52.389Z,523.22
2023-01-04T14:32:57.648Z,529.75
2023-01-04T14:35:07.615Z,530.35
2023-01-04T14:37:10.946Z,532.40
2023-01-04T14:39:30.424Z,533.72
2023-01-04T14:41:35.861Z,540.25
2023-01-04T14:43:46.448Z,539.35
2023-01-04T14:45:49.809Z,532.55
2023-01-04T14:47:53.329Z,546.28
2023-01-04T14:49:56.690Z,546.30
2023-01-04T14:52:02.372Z,534.00
2023-01-04T14:54:06.448Z,542.20
2023-01-04T14:56:14.134Z,532.72
2023-01-04T14:58:17.570Z,544.30
2023-01-04T15:00:20.939Z,547.22
2023-01-04T15:02:26.965Z,547.75
2023-01-04T15:04:30.690Z,546.38
2023-01-04T15:06:34.607Z,545.53
2023-01-04T15:08:39.336Z,542.42
2023-01-04T15:10:42.732Z,531.42
2023-01-04T15:12:47.637Z,536.95
2023-01-04T15:14:50.966Z,537.75
2023-01-04T15:16:54.300Z,534.05
2023-01-04T15:18:57.629Z,536.47
2023-01-04T15:21:01.033Z,544.58
2023-01-04T15:23:04.392Z,537.33
2023-01-04T15:25:08.815Z,543.00
2023-01-04T15:27:12.170Z,526.92
2023-01-04T15:29:16.884Z,548.38
2023-01-04T15:31:27.687Z,538.33
2023-01-04T15:33:33.475Z,539.03
2023-01-04T15:35:37.293Z,551.67
2023-01-04T15:37:40.787Z,536.90
2023-01-04T15:39:44.503Z,531.90
2023-01-04T15:42:05.624Z,529.38
2023-01-04T15:44:11.242Z,534.17
2023-01-04T15:46:16.036Z,537.60
2023-01-04T15:48:19.873Z,541.90
2023-01-04T15:50:23.195Z,540.95
2023-01-04T15:52:26.829Z,543.60
2023-01-04T15:54:30.369Z,541.17
2023-01-04T15:56:33.654Z,542.63
2023-01-04T15:58:37.030Z,540.13
2023-01-04T16:00:40.427Z,536.30
2023-01-04T16:02:45.262Z,532.70
2023-01-04T16:04:49.570Z,533.58
2023-01-04T16:06:53.363Z,533.50
2023-01-04T16:08:59.063Z,524.83
2023-01-04T16:11:09.940Z,534.72
2023-01-04T16:13:13.223Z,532.85
2023-01-04T16:15:19.018Z,535.25
2023-01-04T16:17:22.378Z,529.25
2023-01-04T16:19:27.558Z,534.38
2023-01-04T16:21:31.492Z,541.90
2023-01-04T16:23:34.999Z,532.90
2023-01-04T16:25:38.771Z,549.53
2023-01-04T16:27:43.930Z,529.05
2023-01-04T16:29:47.401Z,533.10
2023-01-04T16:31:50.947Z,526.30
2023-01-04T16:33:55.172Z,525.03
2023-01-04T16:36:04.727Z,528.25
2023-01-04T16:38:08.630Z,544.70
2023-01-04T16:40:13.212Z,530.80
2023-01-04T16:42:16.629Z,524.78
2023-01-04T16:44:20.308Z,529.53
2023-01-04T16:46:25.552Z,528.25
2023-01-04T16:48:28.988Z,527.10
2023-01-04T16:50:32.432Z,533.45
2023-01-04T16:52:37.282Z,524.00
2023-01-04T16:54:40.703Z,531.47
2023-01-04T16:56:45.483Z,530.83
2023-01-04T16:58:49.305Z,529.20
2023-01-04T17:00:53.491Z,523.13
2023-01-04T17:02:58.256Z,529.08
2023-01-04T17:05:01.674Z,529.53
2023-01-04T17:07:05.030Z,540.30
2023-01-04T17:09:13.622Z,554.60
2023-01-04T17:13:43.547Z,549.40
2023-01-04T17:15:46.968Z,543.67
2023-01-04T17:17:50.313Z,552.95
2023-01-04T17:19:54.592Z,554.15
2023-01-04T17:21:57.896Z,544.42
2023-01-04T17:24:01.167Z,542.80
2023-01-04T17:26:08.736Z,542.92
2023-01-04T17:28:12.080Z,547.05
2023-01-04T17:30:15.533Z,537.20
2023-01-04T17:32:18.935Z,540.92
2023-01-04T17:34:23.374Z,555.28
2023-01-04T17:36:27.021Z,542.22
2023-01-04T17:38:30.501Z,544.40
2023-01-04T17:40:35.853Z,538.70
2023-01-04T17:42:42.136Z,542.72
2023-01-04T17:44:46.054Z,543.65
2023-01-04T17:46:49.728Z,541.15
2023-01-04T17:49:21.175Z,539.97
2023-01-04T17:51:20.092Z,539.42
2023-01-04T17:53:23.389Z,547.17
2023-01-04T17:55:26.863Z,550.28
2023-01-04T17:57:31.161Z,555.58
2023-01-04T17:59:37.183Z,554.00
2023-01-04T18:01:40.695Z,547.53
2023-01-04T18:03:46.484Z,556.47
2023-01-04T18:05:59.136Z,550.10
2023-01-04T18:08:02.958Z,546.53
2023-01-04T18:10:07.087Z,551.50
2023-01-04T18:12:10.383Z,543.72
2023-01-04T18:14:14.745Z,553.17
2023-01-04T18:16:24.909Z,546.47
2023-01-04T18:18:29.073Z,556.30
2023-01-04T18:20:32.736Z,554.25
2023-01-04T18:22:36.094Z,545.65
2023-01-04T18:24:39.912Z,551.53
2023-01-04T18:27:19.276Z,559.15
2023-01-04T18:29:08.714Z,553.85
2023-01-04T18:31:15.443Z,547.55
2023-01-04T18:33:20.238Z,546.55
2023-01-04T18:35:23.579Z,553.88
2023-01-04T18:37:26.977Z,558.00
2023-01-04T18:39:30.354Z,561.88
2023-01-04T18:41:33.938Z,546.55
2023-01-04T18:43:37.503Z,551.85
2023-01-04T18:45:41.415Z,562.63
2023-01-04T18:47:47.481Z,567.75
2023-01-04T18:49:52.277Z,548.33
2023-01-04T18:51:55.659Z,557.38
2023-01-04T18:53:59.242Z,554.95
2023-01-04T18:56:05.352Z,560.75
2023-01-04T18:58:08.830Z,558.05
2023-01-04T19:00:13.627Z,548.95
2023-01-04T19:02:19.024Z,547.35
2023-01-04T19:04:22.491Z,560.72
2023-01-04T19:06:29.000Z,557.10
2023-01-04T19:08:32.683Z,556.33
2023-01-04T19:10:36.010Z,555.50
2023-01-04T19:12:39.663Z,552.30
2023-01-04T19:14:43.000Z,559.83
2023-01-04T19:16:46.493Z,558.88
2023-01-04T19:18:49.887Z,552.97
2023-01-04T19:20:53.736Z,571.67
2023-01-04T19:23:00.975Z,559.92
2023-01-04T19:25:04.762Z,548.50
2023-01-04T19:27:09.056Z,551.30
2023-01-04T19:29:12.470Z,548.63
2023-01-04T19:31:16.948Z,557.00
2023-01-04T19:33:20.492Z,555.03
2023-01-04T19:35:24.345Z,563.63
2023-01-04T19:37:28.877Z,561.53
2023-01-04T19:39:33.630Z,558.35
2023-01-04T19:41:38.292Z,556.90
2023-01-04T19:43:42.472Z,557.05
2023-01-04T19:45:45.887Z,562.20
2023-01-04T19:47:50.659Z,564.63
2023-01-04T19:49:54.045Z,556.75
2023-01-04T19:51:57.704Z,552.78
2023-01-04T19:54:01.239Z,557.75
2023-01-04T19:56:06.655Z,561.33
2023-01-04T19:58:09.981Z,546.35
2023-01-04T20:00:14.561Z,563.92
2023-01-04T20:02:18.219Z,556.42
2023-01-04T20:04:21.843Z,566.85
2023-01-04T20:06:25.204Z,558.97
2023-01-04T20:08:28.556Z,561.20
2023-01-04T20:10:34.086Z,547.38
2023-01-04T20:12:38.985Z,559.67
2023-01-04T20:14:42.332Z,551.85
2023-01-04T20:16:45.784Z,545.63
2023-01-04T20:18:49.283Z,557.63
2023-01-04T20:20:53.330Z,560.38
2023-01-04T20:22:59.039Z,555.55
2023-01-04T20:25:02.514Z,563.00
2023-01-04T20:27:07.008Z,557.47
2023-01-04T20:29:11.701Z,554.22
2023-01-04T20:31:17.201Z,554.15
2023-01-04T20:33:20.810Z,550.50
2023-01-04T20:35:24.659Z,550.10
2023-01-04T20:37:28.118Z,545.97
2023-01-04T20:39:31.541Z,549.85
2023-01-04T20:41:35.362Z,555.85
2023-01-04T20:43:38.194Z,549.05
2023-01-04T20:45:47.352Z,567.85
2023-01-04T20:47:50.928Z,556.85
2023-01-04T20:49:54.236Z,551.50
2023-01-04T20:51:57.570Z,554.03
2023-01-04T20:54:01.058Z,559.17
2023-01-04T20:56:09.614Z,575.38
2023-01-04T20:58:15.605Z,568.85
2023-01-04T21:00:19.657Z,543.33
2023-01-04T21:02:27.499Z,558.25
2023-01-04T21:04:32.118Z,552.05
2023-01-04T21:06:35.959Z,553.78
2023-01-04T21:08:40.759Z,556.50
2023-01-04T21:10:46.105Z,555.30
2023-01-04T21:12:49.830Z,550.85
2023-01-04T21:14:53.201Z,557.88
2023-01-04T21:16:56.770Z,557.72
2023-01-04T21:19:01.536Z,559.25
2023-01-04T21:21:08.866Z,546.83
2023-01-04T21:23:14.923Z,551.13
2023-01-04T21:25:18.709Z,550.85
2023-01-04T21:27:22.422Z,547.50
2023-01-04T21:29:27.624Z,547.53
2023-01-04T21:31:31.152Z,552.92
2023-01-04T21:33:34.615Z,551.10
2023-01-04T21:35:40.023Z,564.40
2023-01-04T21:37:43.400Z,553.13
2023-01-04T21:39:46.839Z,553.13
2023-01-04T21:41:51.238Z,553.70
2023-01-04T21:43:57.482Z,551.42
2023-01-04T21:46:06.003Z,563.78
2023-01-04T21:48:09.607Z,551.20
2023-01-04T21:50:16.894Z,558.25
2023-01-04T21:52:22.297Z,551.65
2023-01-04T21:54:26.976Z,561.38
2023-01-04T21:56:31.554Z,544.22
2023-01-04T21:58:35.467Z,553.70
2023-01-04T22:00:40.244Z,559.45
2023-01-04T22:02:43.765Z,554.63
2023-01-04T22:04:48.065Z,554.95
2023-01-04T22:06:51.419Z,562.42
2023-01-04T22:08:56.140Z,551.50
2023-01-04T22:10:59.639Z,552.08
2023-01-04T22:13:02.973Z,559.67
2023-01-04T22:15:07.492Z,561.08
2023-01-04T22:17:11.008Z,545.42
2023-01-04T22:19:15.209Z,559.40
2023-01-04T22:21:20.518Z,551.00
2023-01-04T22:23:23.894Z,548.47
2023-01-04T22:25:28.782Z,547.15
2023-01-04T22:27:32.161Z,545.58
2023-01-04T22:29:35.597Z,554.53
2023-01-04T22:31:39.174Z,562.58
2023-01-04T22:33:43.512Z,552.60
2023-01-04T22:35:47.134Z,554.97
2023-01-04T22:37:50.476Z,553.70
2023-01-04T22:39:53.945Z,552.53
2023-01-04T22:41:58.648Z,554.17
2023-01-04T22:44:04.458Z,548.42
2023-01-04T22:46:11.397Z,544.03
2023-01-04T22:48:14.809Z,556.55
2023-01-04T22:50:18.835Z,556.13
2023-01-04T22:52:22.428Z,558.33
2023-01-04T22:54:25.903Z,542.33
2023-01-04T22:56:30.048Z,546.35
2023-01-04T22:58:35.416Z,552.25
2023-01-04T23:00:39.590Z,552.63
2023-01-04T23:02:43.131Z,555.53
2023-01-04T23:04:46.672Z,553.42
2023-01-04T23:06:50.134Z,546.53
2023-01-04T23:08:57.885Z,546.92
2023-01-04T23:11:05.859Z,550.80
2023-01-04T23:13:09.621Z,550.13
2023-01-04T23:15:14.590Z,546.75
2023-01-04T23:17:18.194Z,555.22
2023-01-04T23:19:21.659Z,562.30
2023-01-04T23:21:25.175Z,535.42
2023-01-04T23:23:28.861Z,544.30
2023-01-04T23:25:33.961Z,559.42
2023-01-04T23:27:37.346Z,544.85
2023-01-04T23:29:40.915Z,550.95
2023-01-04T23:31:45.771Z,555.33
2023-01-04T23:33:52.206Z,553.75
2023-01-04T23:35:55.849Z,552.60
2023-01-04T23:37:59.432Z,550.28
2023-01-04T23:40:02.988Z,549.72
2023-01-04T23:42:06.453Z,558.38
2023-01-04T23:44:12.093Z,546.75
2023-01-04T23:46:17.729Z,541.25
2023-01-04T23:48:22.559Z,551.58
2023-01-04T23:50:25.954Z,549.47
2023-01-04T23:52:29.357Z,543.80
2023-01-04T23:54:32.858Z,548.58
2023-01-04T23:56:37.160Z,546.60
2023-01-04T23:58:40.989Z,546.13
